Time;durP1;ratioP1;P1;durP2;ratioP2;P2;SDS_P1;SDS_P2;PMS_P1;PMS_P2;Temp;Humidity;BMP_temperature;BMP_pressure;BME280_temperature;BME280_humidity;BME280_pressure;Samples;Min_cycle;Max_cycle;Signal;HPM_P1;HPM_P2
2023/06/07 00:00:21;;;;;;;8.23;5.60;;;18.00;93.10;;;;;;5038244;28;20218;-86
2023/06/07 00:02:48;;;;;;;8.70;6.00;;;18.00;93.30;;;;;;5054780;28;20194;-86
2023/06/07 00:05:15;;;;;;;11.07;6.10;;;18.00;93.50;;;;;;5055048;28;20220;-85
2023/06/07 00:07:42;;;;;;;9.57;5.93;;;17.90;93.80;;;;;;5054477;28;20194;-85
2023/06/07 00:10:10;;;;;;;9.43;6.07;;;17.90;94.20;;;;;;5054564;28;20221;-85
2023/06/07 00:12:37;;;;;;;10.80;5.80;;;17.80;94.40;;;;;;5056173;28;20212;-84
2023/06/07 00:15:05;;;;;;;9.03;5.80;;;17.80;94.80;;;;;;5058211;28;20276;-86
2023/06/07 00:17:32;;;;;;;10.43;6.50;;;17.70;95.10;;;;;;5041935;28;20198;-86
2023/06/07 00:20:00;;;;;;;12.47;6.60;;;17.70;95.50;;;;;;5058403;28;20218;-84
2023/06/07 00:22:30;;;;;;;9.33;5.73;;;17.60;96.20;;;;;;5074714;28;20198;-86
2023/06/07 00:24:57;;;;;;;12.27;6.30;;;17.60;96.10;;;;;;5058344;28;20221;-84
2023/06/07 00:27:25;;;;;;;8.90;6.00;;;17.50;96.40;;;;;;5075507;28;20190;-84
2023/06/07 00:29:52;;;;;;;11.27;5.50;;;17.50;96.80;;;;;;5058242;28;20221;-84
2023/06/07 00:32:19;;;;;;;9.90;5.97;;;17.50;97.00;;;;;;5076269;28;20240;-83
2023/06/07 00:34:46;;;;;;;13.17;6.20;;;17.50;97.10;;;;;;5058510;28;20713;-84
2023/06/07 00:37:13;;;;;;;9.77;5.80;;;17.40;97.20;;;;;;5042008;28;20247;-85
2023/06/07 00:39:40;;;;;;;8.67;5.87;;;17.40;97.50;;;;;;5058617;28;20244;-85
2023/06/07 00:42:07;;;;;;;7.37;5.40;;;17.30;97.80;;;;;;5041528;28;20564;-84
2023/06/07 00:44:34;;;;;;;9.77;6.03;;;17.30;98.10;;;;;;5058632;28;20237;-84
2023/06/07 00:47:02;;;;;;;7.83;5.43;;;17.30;98.10;;;;;;5077315;28;20226;-84
2023/06/07 00:49:30;;;;;;;10.10;5.90;;;17.20;98.30;;;;;;5058198;28;20245;-84
2023/06/07 00:51:57;;;;;;;9.20;5.37;;;17.20;98.00;;;;;;5074656;28;20202;-82
2023/06/07 00:54:24;;;;;;;8.90;5.43;;;17.30;98.10;;;;;;5057699;28;20267;-83
2023/06/07 00:56:51;;;;;;;9.67;5.70;;;17.20;98.10;;;;;;5075564;28;20452;-84
2023/06/07 00:59:22;;;;;;;10.10;6.03;;;17.20;98.20;;;;;;5058242;28;20687;-82
2023/06/07 01:01:53;;;;;;;8.87;6.03;;;17.20;98.20;;;;;;5040755;28;20198;-84
2023/06/07 01:04:21;;;;;;;9.70;5.57;;;17.20;98.40;;;;;;5057678;28;20590;-83
2023/06/07 01:06:49;;;;;;;10.50;5.30;;;17.20;98.30;;;;;;5057403;28;20194;-84
2023/06/07 01:09:17;;;;;;;8.40;5.20;;;17.20;98.10;;;;;;5075679;28;20229;-85
2023/06/07 01:11:48;;;;;;;9.10;5.00;;;17.10;98.10;;;;;;5041086;28;20198;-83
2023/06/07 01:14:15;;;;;;;8.53;5.47;;;17.20;98.00;;;;;;5075269;28;20313;-85
2023/06/07 01:16:44;;;;;;;7.20;5.00;;;17.10;97.60;;;;;;5057027;28;20197;-84
2023/06/07 01:19:17;;;;;;;8.80;4.80;;;17.20;97.80;;;;;;5057359;28;20198;-84
2023/06/07 01:21:46;;;;;;;8.70;5.30;;;17.20;97.60;;;;;;5057428;28;20634;-85
2023/06/07 01:24:13;;;;;;;7.73;5.33;;;17.20;97.40;;;;;;5055848;28;20206;-84
2023/06/07 01:26:40;;;;;;;8.17;5.03;;;17.20;97.30;;;;;;5057402;28;20195;-84
2023/06/07 01:29:07;;;;;;;7.80;5.77;;;17.20;97.30;;;;;;5075144;28;20255;-85
2023/06/07 01:31:36;;;;;;;10.40;5.73;;;17.20;97.30;;;;;;5056878;28;20749;-83
2023/06/07 01:34:04;;;;;;;8.73;5.80;;;17.20;97.20;;;;;;5040719;28;20327;-83
2023/06/07 01:36:31;;;;;;;9.27;6.00;;;17.00;97.30;;;;;;5075310;28;20194;-86
2023/06/07 01:39:00;;;;;;;9.40;5.40;;;17.10;97.40;;;;;;5074928;28;20201;-84
2023/06/07 01:41:29;;;;;;;10.70;5.27;;;17.00;97.20;;;;;;5057228;28;20592;-84
2023/06/07 01:43:58;;;;;;;10.03;5.67;;;17.00;97.20;;;;;;5057043;28;20198;-84
2023/06/07 01:46:29;;;;;;;8.33;5.60;;;16.90;97.20;;;;;;5057223;28;20198;-84
2023/06/07 01:48:57;;;;;;;7.60;5.43;;;17.00;97.20;;;;;;5057133;28;20205;-85
2023/06/07 01:51:24;;;;;;;10.53;5.80;;;16.90;97.10;;;;;;5056880;28;20194;-85
2023/06/07 01:53:51;;;;;;;10.63;5.70;;;16.90;97.00;;;;;;5074678;28;20186;-84
2023/06/07 01:56:34;;;;;;;10.40;5.83;;;16.90;97.00;;;;;;5039975;28;20279;-84
2023/06/07 01:59:30;;;;;;;7.10;4.90;;;16.90;97.00;;;;;;5073408;28;20241;-83
2023/06/07 02:02:06;;;;;;;9.37;5.47;;;16.90;97.20;;;;;;5057224;28;20198;-83
2023/06/07 02:04:41;;;;;;;7.93;5.07;;;16.90;97.10;;;;;;5056978;28;20319;-83
2023/06/07 02:07:17;;;;;;;8.60;5.47;;;16.90;96.90;;;;;;5074575;28;20239;-84
2023/06/07 02:09:47;;;;;;;7.73;5.40;;;16.90;96.90;;;;;;5040378;28;20611;-83
2023/06/07 02:12:14;;;;;;;8.93;4.90;;;16.90;97.00;;;;;;5024145;28;20295;-82
2023/06/07 02:14:42;;;;;;;7.83;5.03;;;16.80;97.00;;;;;;5074092;28;20230;-84
2023/06/07 02:17:10;;;;;;;8.27;5.10;;;16.90;97.30;;;;;;5055969;28;20277;-83
2023/06/07 02:19:37;;;;;;;7.57;4.90;;;16.80;97.40;;;;;;5039688;28;20241;-82
2023/06/07 02:22:05;;;;;;;10.37;5.20;;;16.90;97.30;;;;;;5074171;28;20244;-83
2023/06/07 02:24:33;;;;;;;10.87;5.17;;;16.80;97.20;;;;;;5056257;28;20689;-82
2023/06/07 02:27:00;;;;;;;8.73;4.90;;;16.80;97.20;;;;;;5056113;28;20281;-83
2023/06/07 02:29:27;;;;;;;8.77;5.23;;;16.80;97.90;;;;;;5072936;28;20214;-81
2023/06/07 02:31:57;;;;;;;7.10;5.27;;;16.80;97.40;;;;;;5072763;28;20199;-82
2023/06/07 02:34:24;;;;;;;8.20;5.53;;;16.80;97.40;;;;;;5056417;28;20233;-83
2023/06/07 02:36:51;;;;;;;6.87;4.73;;;16.80;97.30;;;;;;5055673;28;20197;-82
2023/06/07 02:39:18;;;;;;;7.90;5.17;;;16.80;97.60;;;;;;5056517;28;20253;-83
2023/06/07 02:41:45;;;;;;;9.23;5.30;;;16.80;97.80;;;;;;5074397;28;20190;-82
2023/06/07 02:44:12;;;;;;;7.57;5.43;;;16.80;98.10;;;;;;5039232;28;20202;-82
2023/06/07 02:46:39;;;;;;;8.27;5.43;;;16.80;98.50;;;;;;5056087;28;20263;-81
2023/06/07 02:49:07;;;;;;;8.13;5.37;;;16.80;99.00;;;;;;5073017;28;20198;-81
2023/06/07 02:51:37;;;;;;;11.20;5.90;;;16.80;99.70;;;;;;5057369;28;20206;-84
2023/06/07 02:54:04;;;;;;;8.13;5.50;;;16.80;99.90;;;;;;5040275;28;20201;-83
2023/06/07 02:56:32;;;;;;;9.90;5.67;;;16.70;99.90;;;;;;5056333;28;20698;-82
2023/06/07 02:58:59;;;;;;;24.10;7.13;;;16.80;99.90;;;;;;5072705;28;20194;-85
2023/06/07 03:01:27;;;;;;;12.27;6.23;;;16.80;99.90;;;;;;5074309;28;20190;-83
2023/06/07 03:03:56;;;;;;;9.67;5.77;;;16.80;99.90;;;;;;5039472;28;20244;-84
2023/06/07 03:06:23;;;;;;;24.47;7.20;;;16.80;99.90;;;;;;5073216;28;20218;-83
2023/06/07 03:08:50;;;;;;;9.07;6.00;;;16.80;99.90;;;;;;5055309;28;20194;-86
2023/06/07 03:11:17;;;;;;;10.20;6.20;;;16.80;99.90;;;;;;5038795;28;20226;-85
2023/06/07 03:13:44;;;;;;;11.93;6.17;;;16.70;99.90;;;;;;5055947;28;20201;-87
2023/06/07 03:16:11;;;;;;;12.60;6.47;;;16.70;99.90;;;;;;5038988;28;20234;-84
2023/06/07 03:18:38;;;;;;;10.67;6.43;;;16.70;99.90;;;;;;5056108;28;20653;-83
2023/06/07 03:21:06;;;;;;;9.93;6.10;;;16.70;99.90;;;;;;5056570;28;20304;-84
2023/06/07 03:23:33;;;;;;;11.43;6.63;;;16.70;99.90;;;;;;5055573;28;20198;-86
2023/06/07 03:25:59;;;;;;;12.20;6.37;;;16.70;99.90;;;;;;5073582;28;20210;-86
2023/06/07 03:28:27;;;;;;;9.47;6.10;;;16.60;99.90;;;;;;5055837;28;20233;-86
2023/06/07 03:30:54;;;;;;;10.33;6.30;;;16.70;99.90;;;;;;5056739;28;20234;-86
2023/06/07 03:33:20;;;;;;;10.07;6.17;;;16.70;99.90;;;;;;5040404;28;20251;-85
2023/06/07 03:35:47;;;;;;;12.90;6.17;;;16.70;99.90;;;;;;5055500;28;20236;-85
2023/06/07 03:38:14;;;;;;;10.43;5.93;;;16.70;99.90;;;;;;5073859;28;20213;-84
2023/06/07 03:40:41;;;;;;;9.47;6.40;;;16.70;99.90;;;;;;5055084;28;20275;-85
2023/06/07 03:43:08;;;;;;;8.40;6.13;;;16.80;99.90;;;;;;5038714;28;20719;-85
2023/06/07 03:45:35;;;;;;;14.80;6.73;;;16.70;99.90;;;;;;5073275;28;20202;-85
2023/06/07 03:48:03;;;;;;;8.57;6.00;;;16.80;99.90;;;;;;5040737;28;20186;-85
2023/06/07 03:50:30;;;;;;;9.03;6.17;;;16.80;99.90;;;;;;5059302;28;20222;-85
2023/06/07 03:52:57;;;;;;;69.53;12.50;;;16.80;99.90;;;;;;5059014;28;20388;-86
2023/06/07 03:55:24;;;;;;;11.77;6.50;;;16.80;99.90;;;;;;5076836;28;20268;-84
2023/06/07 03:57:51;;;;;;;13.57;6.13;;;16.80;99.90;;;;;;5042730;28;20198;-85
2023/06/07 04:00:18;;;;;;;11.70;6.30;;;16.90;99.90;;;;;;5059193;28;20243;-85
2023/06/07 04:02:45;;;;;;;10.37;5.70;;;16.90;99.90;;;;;;5058925;28;20196;-86
2023/06/07 04:05:12;;;;;;;8.73;5.90;;;17.00;99.90;;;;;;5059240;28;20217;-84
2023/06/07 04:07:40;;;;;;;10.67;6.07;;;17.00;99.90;;;;;;5058882;28;20571;-84
2023/06/07 04:10:07;;;;;;;10.53;6.37;;;17.00;99.90;;;;;;5059390;28;20218;-84
2023/06/07 04:12:35;;;;;;;11.00;5.73;;;17.10;99.90;;;;;;5059686;28;20268;-84
2023/06/07 04:15:02;;;;;;;10.23;5.50;;;17.10;99.90;;;;;;5075613;28;20328;-83
2023/06/07 04:17:29;;;;;;;9.23;5.97;;;17.10;99.90;;;;;;5059269;28;20236;-83
2023/06/07 04:19:56;;;;;;;8.93;5.30;;;17.10;99.90;;;;;;5058724;28;20280;-84
2023/06/07 04:22:24;;;;;;;12.33;5.67;;;17.20;99.90;;;;;;5076787;28;20186;-84
2023/06/07 04:24:51;;;;;;;9.63;5.33;;;17.30;99.90;;;;;;5042145;28;20278;-85
2023/06/07 04:27:18;;;;;;;11.33;5.73;;;17.30;99.90;;;;;;5075309;28;20572;-84
2023/06/07 04:29:48;;;;;;;8.57;5.30;;;17.40;99.90;;;;;;5077710;28;20209;-85
2023/06/07 04:32:18;;;;;;;10.23;5.70;;;17.40;99.90;;;;;;5044542;28;20226;-85
2023/06/07 04:34:46;;;;;;;8.07;5.50;;;17.50;99.90;;;;;;5078530;28;20206;-84
2023/06/07 04:37:14;;;;;;;10.07;5.40;;;17.50;99.90;;;;;;5078537;28;20210;-84
2023/06/07 04:39:41;;;;;;;9.57;5.47;;;17.50;99.90;;;;;;5058989;28;20256;-83
2023/06/07 04:42:09;;;;;;;7.27;4.80;;;17.50;99.90;;;;;;5042118;28;20292;-86
2023/06/07 04:44:36;;;;;;;12.07;5.37;;;17.40;99.90;;;;;;5082394;28;20438;-85
2023/06/07 04:47:05;;;;;;;11.73;5.20;;;17.50;99.90;;;;;;5070839;28;20262;-84
2023/06/07 04:49:38;;;;;;;13.07;5.23;;;17.50;99.90;;;;;;5088234;28;20210;-85
2023/06/07 04:52:06;;;;;;;8.80;5.23;;;17.60;99.90;;;;;;5086971;28;20186;-85
2023/06/07 04:54:36;;;;;;;13.23;5.30;;;17.70;99.90;;;;;;5069968;28;20217;-83
2023/06/07 04:57:04;;;;;;;11.27;5.73;;;17.70;99.90;;;;;;5051635;28;20222;-85
2023/06/07 04:59:34;;;;;;;10.80;5.27;;;17.80;99.90;;;;;;5062692;28;20214;-84
2023/06/07 05:02:02;;;;;;;10.77;5.50;;;17.90;99.90;;;;;;5078603;28;20274;-85
2023/06/07 05:04:30;;;;;;;12.00;5.10;;;17.90;99.90;;;;;;5062912;28;20246;-82
2023/06/07 05:06:58;;;;;;;11.93;5.47;;;18.10;99.90;;;;;;5065250;28;20190;-82
2023/06/07 05:09:25;;;;;;;8.33;5.27;;;18.10;99.90;;;;;;5081909;28;20273;-84
2023/06/07 05:11:56;;;;;;;10.17;5.80;;;18.20;99.90;;;;;;5077619;28;20167;-83
2023/06/07 05:14:23;;;;;;;10.73;5.40;;;18.40;99.90;;;;;;5076345;28;20253;-82
2023/06/07 05:16:51;;;;;;;10.27;5.30;;;18.40;99.90;;;;;;5075336;28;20241;-81
2023/06/07 05:19:18;;;;;;;8.53;5.57;;;18.40;99.90;;;;;;5075492;28;20194;-80
2023/06/07 05:21:45;;;;;;;13.57;5.20;;;18.50;99.90;;;;;;5058666;28;20183;-82
2023/06/07 05:24:12;;;;;;;10.57;5.23;;;18.60;99.90;;;;;;5058649;28;20201;-82
2023/06/07 05:26:43;;;;;;;9.30;5.03;;;18.60;99.90;;;;;;5058728;28;20202;-82
2023/06/07 05:29:10;;;;;;;10.13;5.17;;;18.70;99.90;;;;;;5058110;28;20209;-79
2023/06/07 05:31:37;;;;;;;8.07;5.30;;;18.70;99.90;;;;;;5057141;28;20208;-82
2023/06/07 05:34:04;;;;;;;7.50;5.20;;;18.90;99.90;;;;;;5040537;28;20545;-84
2023/06/07 05:36:35;;;;;;;8.30;5.20;;;18.90;99.90;;;;;;5057337;28;20271;-82
2023/06/07 05:39:03;;;;;;;11.13;5.33;;;19.00;99.90;;;;;;5074368;28;20202;-82
2023/06/07 05:41:30;;;;;;;12.67;5.30;;;19.00;99.90;;;;;;5058301;28;20208;-85
2023/06/07 05:43:57;;;;;;;11.13;5.20;;;19.10;99.90;;;;;;5058439;28;20190;-83
2023/06/07 05:46:24;;;;;;;8.93;5.07;;;19.10;99.90;;;;;;5061646;28;20209;-82
2023/06/07 05:48:51;;;;;;;10.80;5.60;;;19.20;99.90;;;;;;5062327;28;20190;-82
2023/06/07 05:51:22;;;;;;;10.77;5.97;;;19.30;99.90;;;;;;5077224;28;20271;-79
2023/06/07 05:53:49;;;;;;;13.40;5.40;;;19.30;99.90;;;;;;5077275;28;20220;-84
2023/06/07 05:56:16;;;;;;;9.70;4.97;;;19.30;99.90;;;;;;5079262;28;20218;-83
2023/06/07 05:58:44;;;;;;;7.70;4.90;;;19.40;99.90;;;;;;5062183;28;20198;-85
2023/06/07 06:01:13;;;;;;;11.77;5.43;;;19.50;99.90;;;;;;5060942;28;20226;-76
2023/06/07 06:03:40;;;;;;;12.87;5.30;;;19.50;99.90;;;;;;5055902;28;20414;-75
2023/06/07 06:06:15;;;;;;;10.03;5.17;;;19.50;99.90;;;;;;5072593;28;20264;-73
2023/06/07 06:08:43;;;;;;;11.63;5.20;;;19.60;99.90;;;;;;5073613;28;20196;-74
2023/06/07 06:11:12;;;;;;;7.70;4.87;;;19.60;99.90;;;;;;5038019;28;20310;-73
2023/06/07 06:13:40;;;;;;;12.53;5.20;;;19.60;99.90;;;;;;5055910;28;20194;-76
2023/06/07 06:16:07;;;;;;;10.37;5.33;;;19.70;99.90;;;;;;5073195;28;20222;-70
2023/06/07 06:18:40;;;;;;;10.37;5.63;;;19.70;99.90;;;;;;5055313;28;20182;-75
2023/06/07 06:21:08;;;;;;;12.33;5.60;;;19.80;99.90;;;;;;5073212;28;20210;-73
2023/06/07 06:23:35;;;;;;;10.83;5.17;;;19.80;99.90;;;;;;5071811;28;20194;-70
2023/06/07 06:26:02;;;;;;;8.13;5.23;;;19.90;99.90;;;;;;5054978;28;20233;-73
2023/06/07 06:28:30;;;;;;;9.43;5.40;;;20.00;99.90;;;;;;5073123;28;20248;-75
2023/06/07 06:30:57;;;;;;;11.23;6.07;;;20.10;99.90;;;;;;5055582;28;20224;-72
2023/06/07 06:33:25;;;;;;;9.20;5.57;;;20.20;99.90;;;;;;5071821;28;20236;-73
2023/06/07 06:35:53;;;;;;;12.00;5.63;;;20.30;99.90;;;;;;5038574;28;20226;-73
2023/06/07 06:38:20;;;;;;;11.37;5.20;;;20.40;99.90;;;;;;5073173;28;20225;-73
2023/06/07 06:40:47;;;;;;;11.83;5.60;;;20.50;99.90;;;;;;5072825;28;20229;-72
2023/06/07 06:43:13;;;;;;;10.40;5.37;;;20.60;99.90;;;;;;5038687;28;20260;-72
2023/06/07 06:45:40;;;;;;;10.83;5.40;;;20.70;99.90;;;;;;5072893;28;20205;-72
2023/06/07 06:48:07;;;;;;;9.40;5.43;;;20.80;99.90;;;;;;5054858;28;20642;-71
2023/06/07 06:50:35;;;;;;;10.40;5.47;;;21.00;99.90;;;;;;5072883;28;20214;-72
2023/06/07 06:53:03;;;;;;;8.80;5.70;;;21.10;99.90;;;;;;5038226;28;20194;-71
2023/06/07 06:55:30;;;;;;;9.77;5.43;;;21.20;99.90;;;;;;5054495;28;20253;-72
2023/06/07 06:57:57;;;;;;;10.50;5.67;;;21.30;99.80;;;;;;5072654;28;20269;-73
2023/06/07 07:00:25;;;;;;;15.90;5.77;;;21.40;99.70;;;;;;5071273;28;20565;-73
2023/06/07 07:02:51;;;;;;;10.07;5.67;;;21.50;99.40;;;;;;5038469;28;20205;-72
2023/06/07 07:05:19;;;;;;;13.27;5.63;;;21.60;99.80;;;;;;5073127;28;20659;-76
2023/06/07 07:07:46;;;;;;;9.80;5.73;;;21.80;99.80;;;;;;5055215;28;20190;-73
2023/06/07 07:10:13;;;;;;;12.90;5.33;;;21.90;99.40;;;;;;5037758;28;20222;-73
2023/06/07 07:12:43;;;;;;;11.03;5.47;;;22.00;98.90;;;;;;5054960;28;20585;-72
2023/06/07 07:15:10;;;;;;;12.50;5.70;;;22.10;99.10;;;;;;5072575;28;20607;-73
2023/06/07 07:17:48;;;;;;;7.83;5.40;;;22.30;98.80;;;;;;5054693;28;20275;-74
2023/06/07 07:20:17;;;;;;;8.70;5.83;;;22.40;98.30;;;;;;5054797;28;20214;-73
2023/06/07 07:22:46;;;;;;;9.75;5.72;;;22.50;99.00;;;;;;5070983;28;20198;-72
2023/06/07 07:25:14;;;;;;;7.20;5.70;;;22.60;98.70;;;;;;5038471;28;20210;-73
2023/06/07 07:27:41;;;;;;;11.07;5.73;;;22.70;97.80;;;;;;5071714;28;20198;-73
2023/06/07 07:30:09;;;;;;;8.90;5.53;;;22.80;97.30;;;;;;5054589;28;20272;-72
2023/06/07 07:32:38;;;;;;;9.18;5.80;;;22.90;97.40;;;;;;5054279;28;20190;-73
2023/06/07 07:35:05;;;;;;;11.07;5.70;;;23.00;97.30;;;;;;5054254;28;20248;-71
2023/06/07 07:37:32;;;;;;;9.38;5.50;;;23.20;96.70;;;;;;5071083;28;20226;-74
2023/06/07 07:39:59;;;;;;;10.20;6.07;;;23.30;96.50;;;;;;5070905;28;20460;-71
2023/06/07 07:42:27;;;;;;;12.75;5.93;;;23.40;95.80;;;;;;5071025;28;20200;-72
2023/06/07 07:44:54;;;;;;;10.93;6.10;;;23.60;95.30;;;;;;5070843;28;20240;-73
2023/06/07 07:47:21;;;;;;;11.18;5.70;;;23.60;94.30;;;;;;5037378;28;20198;-73
2023/06/07 07:49:48;;;;;;;9.68;5.82;;;23.80;93.90;;;;;;5071873;28;20202;-70
2023/06/07 07:52:15;;;;;;;11.85;6.07;;;24.00;94.30;;;;;;5071930;28;20191;-72
2023/06/07 07:54:43;;;;;;;9.80;6.20;;;24.00;94.10;;;;;;5054329;28;20270;-73
2023/06/07 07:57:10;;;;;;;12.10;5.78;;;24.20;93.70;;;;;;5071904;28;20256;-72
2023/06/07 07:59:37;;;;;;;8.48;5.82;;;24.30;93.00;;;;;;5071797;28;20577;-72
2023/06/07 08:02:05;;;;;;;10.27;5.95;;;24.40;92.20;;;;;;5054028;28;20193;-71
2023/06/07 08:04:31;;;;;;;9.18;5.97;;;24.60;91.90;;;;;;5053956;28;20263;-71
2023/06/07 08:06:58;;;;;;;9.63;5.90;;;24.70;91.80;;;;;;5053997;28;20197;-72
2023/06/07 08:09:25;;;;;;;10.20;5.88;;;24.80;91.60;;;;;;5072029;28;20218;-74
2023/06/07 08:11:52;;;;;;;9.70;5.57;;;24.80;91.20;;;;;;5072214;28;20603;-73
2023/06/07 08:14:20;;;;;;;8.07;5.40;;;25.00;91.30;;;;;;5053759;28;20640;-73
2023/06/07 08:16:48;;;;;;;9.65;5.40;;;25.00;90.60;;;;;;5071838;28;20293;-73
2023/06/07 08:19:15;;;;;;;10.63;5.72;;;25.10;90.40;;;;;;5072234;28;20194;-74
2023/06/07 08:21:43;;;;;;;10.13;5.28;;;25.30;90.30;;;;;;5072318;28;20277;-72
2023/06/07 08:24:11;;;;;;;9.05;4.75;;;25.90;89.30;;;;;;5037533;28;20190;-73
2023/06/07 08:26:38;;;;;;;8.43;4.63;;;26.80;84.40;;;;;;5054111;28;20225;-75
2023/06/07 08:29:05;;;;;;;9.07;4.50;;;27.70;81.80;;;;;;5053789;28;20692;-73
2023/06/07 08:31:32;;;;;;;7.75;4.30;;;28.50;77.80;;;;;;5053869;28;20259;-74
2023/06/07 08:33:59;;;;;;;5.40;4.03;;;29.10;73.30;;;;;;5073141;28;20657;-73
2023/06/07 08:36:26;;;;;;;8.18;3.90;;;29.50;71.90;;;;;;5075248;28;20206;-74
2023/06/07 08:38:53;;;;;;;7.75;3.40;;;29.80;68.80;;;;;;5040476;28;20194;-75
2023/06/07 08:41:21;;;;;;;7.10;3.47;;;30.10;67.50;;;;;;5057593;28;20246;-75
2023/06/07 08:43:49;;;;;;;7.55;3.33;;;30.40;63.40;;;;;;5057295;28;20587;-73
2023/06/07 08:46:17;;;;;;;6.30;3.63;;;30.20;63.50;;;;;;5075939;28;20214;-76
2023/06/07 08:48:47;;;;;;;6.40;3.75;;;29.90;63.90;;;;;;5041181;28;20728;-76
2023/06/07 08:51:16;;;;;;;6.70;3.40;;;29.40;63.90;;;;;;5057546;28;20266;-75
2023/06/07 08:53:54;;;;;;;4.43;3.00;;;29.60;63.30;;;;;;5057321;28;20198;-73
2023/06/07 08:56:23;;;;;;;6.00;3.20;;;29.80;60.90;;;;;;5073664;28;20230;-75
2023/06/07 08:58:51;;;;;;;6.10;3.08;;;29.90;59.10;;;;;;5057499;28;20499;-74
2023/06/07 09:01:20;;;;;;;6.72;3.30;;;29.60;60.00;;;;;;5057014;28;20636;-71
2023/06/07 09:03:55;;;;;;;8.05;3.47;;;29.70;60.60;;;;;;5057207;28;20245;-73
2023/06/07 09:06:22;;;;;;;5.13;3.20;;;30.30;61.50;;;;;;5057221;28;20237;-71
2023/06/07 09:08:49;;;;;;;6.53;3.40;;;30.50;59.40;;;;;;5056924;28;20197;-74
2023/06/07 09:11:16;;;;;;;6.85;3.45;;;30.10;58.20;;;;;;5056854;28;20222;-73
2023/06/07 09:13:44;;;;;;;6.85;3.30;;;29.40;57.70;;;;;;5075019;28;20198;-74
2023/06/07 09:16:11;;;;;;;6.22;3.28;;;29.20;59.50;;;;;;5056675;28;20264;-74
2023/06/07 09:18:43;;;;;;;6.95;3.20;;;29.30;59.40;;;;;;5040236;28;20685;-73
2023/06/07 09:21:30;;;;;;;8.68;3.40;;;29.20;58.80;;;;;;5073580;28;20218;-74
2023/06/07 09:24:00;;;;;;;4.85;3.50;;;28.80;59.20;;;;;;5074643;28;20174;-72
2023/06/07 09:26:38;;;;;;;5.43;3.30;;;28.60;60.40;;;;;;5074436;28;20228;-71
2023/06/07 09:29:10;;;;;;;5.63;3.70;;;28.40;62.00;;;;;;5074317;28;20615;-74
2023/06/07 09:31:37;;;;;;;7.90;4.00;;;28.30;62.60;;;;;;5056358;28;20488;-74
2023/06/07 09:34:26;;;;;;;7.80;3.88;;;28.20;62.90;;;;;;5056946;28;20548;-72
2023/06/07 09:36:58;;;;;;;7.03;3.78;;;28.00;62.80;;;;;;5039601;28;20241;-75
2023/06/07 09:39:28;;;;;;;11.07;3.80;;;27.70;63.30;;;;;;5056202;28;20630;-77
2023/06/07 09:41:57;;;;;;;7.85;4.10;;;27.60;64.00;;;;;;5074356;28;20202;-73
2023/06/07 09:44:25;;;;;;;8.18;3.63;;;27.80;64.30;;;;;;5055853;28;20221;-74
2023/06/07 09:46:53;;;;;;;5.88;3.75;;;27.90;64.50;;;;;;5073692;28;20186;-76
2023/06/07 09:49:28;;;;;;;5.32;3.30;;;27.90;65.70;;;;;;5074317;28;20245;-74
2023/06/07 09:51:55;;;;;;;4.53;3.25;;;27.80;63.00;;;;;;5072751;28;20185;-75
2023/06/07 09:54:38;;;;;;;8.40;3.55;;;27.50;63.30;;;;;;5073853;28;20214;-73
2023/06/07 09:57:08;;;;;;;8.48;3.33;;;27.30;63.90;;;;;;5073880;28;20202;-74
2023/06/07 09:59:37;;;;;;;6.15;3.65;;;27.20;63.00;;;;;;5073857;28;20210;-72
2023/06/07 10:02:24;;;;;;;5.28;3.60;;;27.00;63.50;;;;;;5055907;28;20286;-71
2023/06/07 10:04:52;;;;;;;5.50;3.65;;;26.90;64.20;;;;;;5055582;28;20222;-71
2023/06/07 10:07:30;;;;;;;4.65;3.50;;;26.90;65.20;;;;;;5039879;28;20209;-70
2023/06/07 10:09:58;;;;;;;9.07;3.40;;;27.10;65.40;;;;;;5055542;28;20214;-70
2023/06/07 10:12:32;;;;;;;4.97;3.25;;;27.30;64.60;;;;;;5055936;28;20281;-74
2023/06/07 10:15:03;;;;;;;5.30;3.58;;;27.60;63.50;;;;;;5055425;28;20655;-72
2023/06/07 10:17:50;;;;;;;6.10;3.50;;;27.90;63.40;;;;;;5073345;28;20198;-73
2023/06/07 10:20:30;;;;;;;5.68;3.60;;;28.30;63.50;;;;;;5073290;28;20361;-74
2023/06/07 10:23:06;;;;;;;5.60;3.60;;;28.30;63.00;;;;;;5073251;28;20661;-72
2023/06/07 10:25:41;;;;;;;6.68;3.22;;;28.60;63.30;;;;;;5055088;28;20589;-72
2023/06/07 10:28:19;;;;;;;5.30;3.22;;;29.10;61.40;;;;;;5055170;28;20258;-72
2023/06/07 10:30:53;;;;;;;4.50;3.33;;;29.20;60.10;;;;;;5073049;28;20209;-73
2023/06/07 10:33:23;;;;;;;6.78;3.47;;;29.10;60.40;;;;;;5055323;28;20629;-70
2023/06/07 10:35:51;;;;;;;6.05;3.33;;;28.90;61.30;;;;;;5055090;28;20556;-71
2023/06/07 10:38:18;;;;;;;6.95;3.65;;;28.90;61.90;;;;;;5055103;28;20260;-72
2023/06/07 10:40:45;;;;;;;5.40;3.40;;;29.30;63.30;;;;;;5072789;28;20220;-71
2023/06/07 10:43:12;;;;;;;5.88;3.40;;;29.80;60.90;;;;;;5072628;28;20206;-72
2023/06/07 10:45:39;;;;;;;5.20;3.28;;;29.90;59.50;;;;;;5072735;28;20295;-74
2023/06/07 10:48:33;;;;;;;9.25;3.33;;;29.90;58.60;;;;;;5054834;28;20198;-74
2023/06/07 10:51:01;;;;;;;5.88;3.25;;;30.30;58.50;;;;;;5072459;28;20210;-75
2023/06/07 10:53:51;;;;;;;7.60;3.40;;;30.30;58.10;;;;;;5054908;28;20217;-74
2023/06/07 10:56:33;;;;;;;6.30;3.67;;;30.20;57.40;;;;;;5072775;28;20225;-74
2023/06/07 10:59:13;;;;;;;5.85;3.70;;;29.80;59.10;;;;;;5055035;28;20625;-72
2023/06/07 11:01:41;;;;;;;6.68;4.25;;;29.50;60.60;;;;;;5054797;28;20292;-73
2023/06/07 11:04:31;;;;;;;10.23;4.20;;;29.60;61.10;;;;;;5071312;28;20316;-74
2023/06/07 11:07:18;;;;;;;5.55;4.03;;;29.60;63.30;;;;;;5038638;28;20449;-72
2023/06/07 11:09:48;;;;;;;5.60;3.72;;;29.20;62.30;;;;;;5054545;28;20259;-72
2023/06/07 11:12:53;;;;;;;7.57;3.70;;;29.00;62.40;;;;;;5071203;28;20285;-72
2023/06/07 11:15:24;;;;;;;4.53;3.47;;;28.70;62.10;;;;;;4974639;28;20688;-73
2023/06/07 11:17:59;;;;;;;6.45;3.72;;;28.50;62.30;;;;;;4990884;28;20236;-73
2023/06/07 11:20:38;;;;;;;6.63;3.42;;;28.30;62.90;;;;;;4990820;28;20675;-74
2023/06/07 11:23:26;;;;;;;7.72;3.72;;;28.30;62.90;;;;;;4974507;28;20200;-74
2023/06/07 11:26:04;;;;;;;5.28;3.78;;;28.30;64.70;;;;;;4974461;28;20224;-74
2023/06/07 11:28:32;;;;;;;10.23;4.05;;;28.40;65.10;;;;;;4958463;28;20369;-74
2023/06/07 11:31:00;;;;;;;5.88;3.90;;;28.30;66.00;;;;;;4974444;28;20619;-75
2023/06/07 11:33:28;;;;;;;7.25;3.78;;;28.00;64.30;;;;;;4990767;28;20567;-77
2023/06/07 11:35:56;;;;;;;4.57;3.75;;;27.90;64.80;;;;;;4990749;28;20217;-75
2023/06/07 11:38:26;;;;;;;6.22;3.80;;;27.90;65.50;;;;;;4974123;28;20232;-74
2023/06/07 11:40:53;;;;;;;4.55;3.42;;;28.00;64.80;;;;;;4990616;28;20268;-74
2023/06/07 11:43:23;;;;;;;5.18;3.40;;;28.30;64.80;;;;;;4958006;28;20291;-73
2023/06/07 11:45:54;;;;;;;4.80;3.47;;;28.40;63.00;;;;;;4974080;28;20243;-74
2023/06/07 11:48:26;;;;;;;5.40;3.63;;;28.50;63.30;;;;;;4990535;28;20223;-75
2023/06/07 11:50:53;;;;;;;5.65;3.42;;;28.50;63.10;;;;;;5013320;28;20695;-74
2023/06/07 11:53:21;;;;;;;6.70;3.65;;;28.40;63.20;;;;;;5054222;28;20205;-71
2023/06/07 11:55:48;;;;;;;8.40;3.58;;;28.40;64.00;;;;;;5053879;28;20217;-71
2023/06/07 11:58:15;;;;;;;5.90;3.72;;;28.40;65.10;;;;;;5054169;28;20221;-71
2023/06/07 12:00:44;;;;;;;9.88;3.70;;;28.40;65.10;;;;;;5054256;28;20526;-74
2023/06/07 12:03:11;;;;;;;8.95;4.10;;;28.30;65.60;;;;;;5071068;28;20434;-74
2023/06/07 12:05:38;;;;;;;7.93;4.22;;;28.10;66.10;;;;;;5053811;28;20308;-72
2023/06/07 12:08:09;;;;;;;7.20;3.80;;;28.10;67.80;;;;;;5054263;28;20228;-73
2023/06/07 12:10:36;;;;;;;8.75;3.90;;;28.70;67.30;;;;;;5025307;28;20209;-75
2023/06/07 12:13:09;;;;;;;8.10;3.95;;;29.60;66.20;;;;;;5058436;28;20204;-73
2023/06/07 12:15:52;;;;;;;5.45;3.58;;;30.50;64.50;;;;;;5075907;28;20731;-75
2023/06/07 12:18:22;;;;;;;6.38;3.78;;;31.40;62.60;;;;;;5041322;28;20720;-75
2023/06/07 12:21:10;;;;;;;4.43;3.58;;;31.80;60.10;;;;;;5057641;28;20260;-75
2023/06/07 12:23:44;;;;;;;5.30;3.75;;;31.80;59.10;;;;;;5041345;28;20201;-75
2023/06/07 12:26:16;;;;;;;5.30;3.60;;;32.00;60.20;;;;;;5074740;28;20681;-74
2023/06/07 12:28:43;;;;;;;10.52;3.90;;;31.80;58.20;;;;;;5057808;28;20206;-74
2023/06/07 12:31:17;;;;;;;6.22;3.58;;;31.60;59.70;;;;;;5074029;28;20249;-73
2023/06/07 12:33:57;;;;;;;6.97;3.55;;;31.20;63.00;;;;;;5057738;28;20638;-72
2023/06/07 12:36:28;;;;;;;4.95;3.80;;;31.10;63.70;;;;;;5074160;28;20213;-73
2023/06/07 12:38:59;;;;;;;7.50;3.83;;;30.80;64.80;;;;;;5075261;28;20198;-73
2023/06/07 12:41:28;;;;;;;5.22;3.83;;;30.60;62.10;;;;;;5057673;28;20201;-72
2023/06/07 12:43:57;;;;;;;7.60;3.60;;;30.30;63.10;;;;;;5073939;28;20302;-73
2023/06/07 12:46:24;;;;;;;8.05;3.83;;;30.10;66.20;;;;;;5057340;28;20292;-74
2023/06/07 12:48:51;;;;;;;6.65;3.90;;;29.80;64.20;;;;;;5057123;28;20190;-73
2023/06/07 12:51:18;;;;;;;5.47;3.78;;;29.50;67.40;;;;;;5074905;28;20260;-72
2023/06/07 12:53:46;;;;;;;5.22;3.70;;;29.40;67.70;;;;;;5075090;28;20190;-72